createdAt,value
2022-12-24T00:00:50.967Z,18.77
2022-12-24T00:01:53.662Z,17.08
2022-12-24T00:02:56.606Z,17.35
2022-12-24T00:03:59.400Z,17.20
2022-12-24T00:05:02.294Z,15.77
2022-12-24T00:06:09.862Z,17.27
2022-12-24T00:07:12.800Z,16.63
2022-12-24T00:08:15.587Z,16.77
2022-12-24T00:09:18.307Z,18.17
2022-12-24T00:10:21.029Z,17.25
2022-12-24T00:11:23.732Z,15.18
2022-12-24T00:12:26.696Z,17.52
2022-12-24T00:13:29.406Z,16.75
2022-12-24T00:14:32.267Z,16.35
2022-12-24T00:15:35.180Z,17.35
2022-12-24T00:16:38.167Z,16.48
2022-12-24T00:17:40.938Z,15.93
2022-12-24T00:18:46.658Z,16.95
2022-12-24T00:19:49.893Z,18.58
2022-12-24T00:20:53.130Z,19.35
2022-12-24T00:21:55.924Z,18.48
2022-12-24T00:22:58.610Z,18.10
2022-12-24T00:24:03.975Z,17.42
2022-12-24T00:25:07.146Z,17.38
2022-12-24T00:26:09.994Z,17.10
2022-12-24T00:27:12.722Z,16.70
2022-12-24T00:28:17.030Z,17.92
2022-12-24T00:29:19.768Z,17.98
2022-12-24T00:30:22.527Z,17.30
2022-12-24T00:31:25.550Z,17.50
2022-12-24T00:32:28.381Z,16.23
2022-12-24T00:33:31.250Z,17.30
2022-12-24T00:34:34.320Z,16.85
2022-12-24T00:35:38.749Z,17.02
2022-12-24T00:36:41.726Z,19.40
2022-12-24T00:37:48.457Z,17.08
2022-12-24T00:38:51.179Z,17.83
2022-12-24T00:39:54.129Z,17.23
2022-12-24T00:41:01.775Z,17.05
2022-12-24T00:42:04.626Z,17.42
2022-12-24T00:43:07.418Z,17.48
2022-12-24T00:44:10.433Z,18.20
2022-12-24T00:45:13.521Z,17.35
2022-12-24T00:46:16.268Z,18.27
2022-12-24T00:47:18.992Z,18.15
2022-12-24T00:48:23.359Z,17.42
2022-12-24T00:49:26.140Z,18.45
2022-12-24T00:50:28.941Z,17.25
2022-12-24T00:51:32.003Z,18.15
2022-12-24T00:52:35.051Z,18.33
2022-12-24T00:53:37.845Z,18.40
2022-12-24T00:54:40.653Z,18.13
2022-12-24T00:55:43.420Z,20.23
2022-12-24T00:56:46.338Z,16.80
2022-12-24T00:57:49.252Z,17.08
2022-12-24T00:58:52.374Z,19.60
2022-12-24T00:59:55.153Z,18.95
2022-12-24T01:00:57.990Z,20.50
2022-12-24T01:02:00.759Z,19.92
2022-12-24T01:03:04.122Z,19.58
2022-12-24T01:04:25.924Z,19.15
2022-12-24T01:05:28.789Z,17.35
2022-12-24T01:06:31.560Z,18.67
2022-12-24T01:07:34.642Z,20.23
2022-12-24T01:08:37.967Z,18.77
2022-12-24T01:09:40.675Z,18.48
2022-12-24T01:10:43.354Z,19.95
2022-12-24T01:11:46.371Z,18.25
2022-12-24T01:12:49.189Z,20.35
2022-12-24T01:13:52.160Z,18.00
2022-12-24T01:14:55.089Z,17.30
2022-12-24T01:15:58.249Z,18.98
2022-12-24T01:17:01.136Z,23.38
2022-12-24T01:18:04.084Z,21.48
2022-12-24T01:19:07.065Z,20.90
2022-12-24T01:20:15.015Z,19.65
2022-12-24T01:21:17.908Z,20.95
2022-12-24T01:22:20.632Z,20.67
2022-12-24T01:23:23.343Z,22.30
2022-12-24T01:24:26.639Z,21.08
2022-12-24T01:25:29.553Z,21.67
2022-12-24T01:26:32.300Z,24.50
2022-12-24T01:27:35.489Z,24.52
2022-12-24T01:28:38.351Z,23.90
2022-12-24T01:29:41.024Z,23.60
2022-12-24T01:30:44.147Z,26.90
2022-12-24T01:31:47.034Z,26.08
2022-12-24T01:32:50.069Z,26.48
2022-12-24T01:33:52.797Z,24.98
2022-12-24T01:34:55.618Z,20.98
2022-12-24T01:35:58.555Z,23.00
2022-12-24T01:37:01.267Z,20.48
2022-12-24T01:38:04.083Z,21.63
2022-12-24T01:39:06.844Z,18.13
2022-12-24T01:40:35.171Z,20.40
2022-12-24T01:41:56.748Z,20.40
2022-12-24T01:43:17.952Z,20.52
2022-12-24T01:44:22.385Z,19.58
2022-12-24T01:45:52.263Z,19.05
2022-12-24T01:47:20.685Z,18.50
2022-12-24T01:48:36.552Z,19.73
2022-12-24T01:49:42.868Z,19.13
2022-12-24T01:50:45.961Z,19.63
2022-12-24T01:51:55.199Z,19.42
2022-12-24T01:52:58.212Z,19.02
2022-12-24T01:54:10.819Z,22.05
2022-12-24T01:55:16.363Z,19.20
2022-12-24T01:56:20.087Z,18.88
2022-12-24T01:57:29.145Z,19.73
2022-12-24T01:58:33.265Z,20.17
2022-12-24T01:59:36.866Z,18.10
2022-12-24T02:00:39.670Z,18.75
2022-12-24T02:01:42.566Z,19.33
2022-12-24T02:02:47.480Z,19.33
2022-12-24T02:03:50.685Z,19.45
2022-12-24T02:05:02.260Z,19.45
2022-12-24T02:06:05.708Z,20.08
2022-12-24T02:07:09.893Z,18.33
2022-12-24T02:08:13.371Z,19.30
2022-12-24T02:09:16.130Z,20.63
2022-12-24T02:10:19.395Z,18.23
2022-12-24T02:11:22.966Z,17.83
2022-12-24T02:12:31.121Z,18.25
2022-12-24T02:13:33.980Z,19.05
2022-12-24T02:14:37.630Z,19.73
2022-12-24T02:15:40.453Z,20.85
2022-12-24T02:17:11.404Z,18.60
2022-12-24T02:19:00.633Z,17.73
2022-12-24T02:20:27.649Z,17.83
2022-12-24T02:21:43.292Z,18.80
2022-12-24T02:23:04.690Z,18.23
2022-12-24T02:24:28.696Z,19.45
2022-12-24T02:26:28.678Z,18.00
2022-12-24T02:27:31.664Z,18.55
2022-12-24T02:28:43.378Z,17.35
2022-12-24T02:30:03.740Z,19.63
2022-12-24T02:31:12.089Z,18.08
2022-12-24T02:32:26.564Z,17.52
2022-12-24T02:34:16.780Z,18.67
2022-12-24T02:35:24.387Z,16.80
2022-12-24T02:36:34.162Z,17.52
2022-12-24T02:37:47.920Z,15.55
2022-12-24T02:39:05.224Z,16.42
2022-12-24T02:40:16.773Z,16.02
2022-12-24T02:41:26.515Z,14.95
2022-12-24T02:42:35.457Z,15.32
2022-12-24T02:43:41.225Z,14.07
2022-12-24T02:44:53.630Z,15.40
2022-12-24T02:46:01.340Z,15.18
2022-12-24T02:47:05.709Z,14.57
2022-12-24T02:48:08.776Z,14.85
2022-12-24T02:49:11.997Z,15.32
2022-12-24T02:50:18.404Z,14.90
2022-12-24T02:51:25.027Z,14.18
2022-12-24T02:52:36.518Z,15.90
2022-12-24T02:53:39.921Z,16.33
2022-12-24T02:54:42.646Z,14.18
2022-12-24T02:55:54.570Z,14.90
2022-12-24T02:57:02.753Z,13.77
2022-12-24T02:58:17.466Z,14.65
2022-12-24T02:59:40.768Z,14.48
2022-12-24T03:01:18.967Z,13.45
2022-12-24T03:03:01.706Z,13.65
2022-12-24T03:04:39.657Z,15.30
2022-12-24T03:05:51.786Z,13.27
2022-12-24T03:07:02.418Z,12.55
2022-12-24T03:08:16.347Z,14.38
2022-12-24T03:09:31.007Z,14.07
2022-12-24T03:10:36.191Z,14.48
2022-12-24T03:11:43.639Z,15.15
2022-12-24T03:12:52.534Z,13.82
2022-12-24T03:13:56.062Z,13.02
2022-12-24T03:14:59.549Z,15.15
2022-12-24T03:16:06.122Z,14.45
2022-12-24T03:17:09.568Z,15.18
2022-12-24T03:18:15.856Z,13.95
2022-12-24T03:19:19.026Z,14.27
2022-12-24T03:20:28.622Z,14.23
2022-12-24T03:21:36.335Z,15.48
2022-12-24T03:22:39.544Z,13.15
2022-12-24T03:23:43.086Z,14.38
2022-12-24T03:24:45.999Z,15.13
2022-12-24T03:25:49.326Z,14.25
2022-12-24T03:26:52.903Z,14.52
2022-12-24T03:27:57.339Z,14.40
2022-12-24T03:29:00.595Z,14.50
2022-12-24T03:30:10.412Z,14.23
2022-12-24T03:31:14.265Z,13.30
2022-12-24T03:32:32.612Z,15.70
2022-12-24T03:33:35.701Z,14.10
2022-12-24T03:34:38.443Z,14.80
2022-12-24T03:35:41.270Z,14.15
2022-12-24T03:36:44.353Z,13.93
2022-12-24T03:37:47.079Z,15.15
2022-12-24T03:38:49.785Z,14.95
2022-12-24T03:39:52.988Z,15.75
2022-12-24T03:40:55.848Z,15.02
2022-12-24T03:41:58.615Z,14.77
2022-12-24T03:43:01.455Z,17.35
2022-12-24T03:44:04.584Z,14.23
2022-12-24T03:45:07.809Z,14.70
2022-12-24T03:46:10.696Z,14.93
2022-12-24T03:47:13.618Z,16.65
2022-12-24T03:48:16.354Z,15.05
2022-12-24T03:49:19.189Z,14.52
2022-12-24T03:50:22.149Z,15.95
2022-12-24T03:51:25.763Z,15.30
2022-12-24T03:52:28.841Z,14.23
2022-12-24T03:53:31.576Z,14.57
2022-12-24T03:54:34.276Z,14.90
2022-12-24T03:55:38.126Z,14.10
2022-12-24T03:56:40.936Z,15.32
2022-12-24T03:57:43.701Z,15.23
2022-12-24T03:58:46.547Z,14.00
2022-12-24T03:59:49.289Z,15.05
2022-12-24T04:00:53.688Z,13.63
2022-12-24T04:01:56.895Z,14.40
2022-12-24T04:02:59.921Z,13.02
2022-12-24T04:04:02.720Z,14.35
2022-12-24T04:05:06.197Z,13.18
2022-12-24T04:06:10.966Z,14.65
2022-12-24T04:07:13.970Z,13.95
2022-12-24T04:08:16.753Z,13.48
2022-12-24T04:09:19.559Z,14.68
2022-12-24T04:10:22.479Z,13.20
2022-12-24T04:11:25.280Z,13.85
2022-12-24T04:12:28.252Z,14.10
2022-12-24T04:13:30.962Z,12.73
2022-12-24T04:14:33.780Z,12.95
2022-12-24T04:15:36.574Z,14.50
2022-12-24T04:16:39.487Z,13.63
2022-12-24T04:17:42.248Z,14.40
2022-12-24T04:18:45.099Z,13.80
2022-12-24T04:19:48.148Z,14.93
2022-12-24T04:20:50.929Z,14.20
2022-12-24T04:21:53.647Z,14.07
2022-12-24T04:22:56.523Z,13.52
2022-12-24T04:23:59.267Z,14.55
2022-12-24T04:25:02.092Z,14.25
2022-12-24T04:26:06.769Z,13.15
2022-12-24T04:27:09.574Z,13.05
2022-12-24T04:28:12.978Z,14.00
2022-12-24T04:29:15.712Z,13.18
2022-12-24T04:30:18.780Z,12.70
2022-12-24T04:31:21.576Z,14.35
2022-12-24T04:32:26.717Z,14.02
2022-12-24T04:33:29.943Z,13.48
2022-12-24T04:34:32.725Z,13.23
2022-12-24T04:35:42.493Z,14.30
2022-12-24T04:36:45.285Z,12.27
2022-12-24T04:37:48.097Z,13.68
2022-12-24T04:38:51.242Z,14.65
2022-12-24T04:39:54.186Z,12.45
2022-12-24T04:41:01.322Z,12.82
2022-12-24T04:42:04.317Z,11.38
2022-12-24T04:43:07.072Z,12.25
2022-12-24T04:44:10.033Z,12.63
2022-12-24T04:45:12.815Z,13.50
2022-12-24T04:46:18.587Z,13.50
2022-12-24T04:47:21.295Z,12.50
2022-12-24T04:48:24.127Z,11.80
2022-12-24T04:49:27.042Z,13.20
2022-12-24T04:50:29.890Z,12.70
2022-12-24T04:51:32.666Z,13.68
2022-12-24T04:52:35.524Z,12.02
2022-12-24T04:53:39.106Z,13.27
2022-12-24T04:54:41.794Z,12.50
2022-12-24T04:55:47.534Z,11.35
2022-12-24T04:56:50.271Z,11.93
2022-12-24T04:57:55.316Z,12.05
2022-12-24T04:59:00.035Z,12.88
2022-12-24T05:00:04.221Z,11.93
2022-12-24T05:01:08.755Z,11.15
2022-12-24T05:02:11.825Z,12.10
2022-12-24T05:03:14.811Z,12.00
2022-12-24T05:04:17.629Z,12.55
2022-12-24T05:05:20.597Z,13.50
2022-12-24T05:06:26.452Z,10.65
2022-12-24T05:07:29.177Z,11.75
2022-12-24T05:08:32.118Z,12.98
2022-12-24T05:09:34.917Z,12.38
2022-12-24T05:10:37.761Z,11.60
2022-12-24T05:11:40.547Z,11.93
2022-12-24T05:12:43.471Z,11.20
2022-12-24T05:13:48.148Z,12.20
2022-12-24T05:14:51.098Z,11.45
2022-12-24T05:15:54.291Z,11.80
2022-12-24T05:16:57.180Z,11.38
2022-12-24T05:18:00.172Z,11.20
2022-12-24T05:19:03.054Z,10.85
2022-12-24T05:20:06.726Z,10.40
2022-12-24T05:21:21.640Z,11.70
2022-12-24T05:22:43.107Z,11.38
2022-12-24T05:24:04.599Z,11.63
2022-12-24T05:25:26.179Z,9.77
2022-12-24T05:26:41.879Z,11.18
2022-12-24T05:27:50.918Z,10.90
2022-12-24T05:28:56.322Z,10.40
2022-12-24T05:29:59.148Z,10.82
2022-12-24T05:31:02.088Z,11.43
2022-12-24T05:32:05.087Z,11.63
2022-12-24T05:33:07.829Z,11.18
2022-12-24T05:34:11.114Z,12.25
2022-12-24T05:35:13.975Z,11.85
2022-12-24T05:36:17.208Z,12.73
2022-12-24T05:37:20.199Z,11.35
2022-12-24T05:38:22.971Z,11.88
2022-12-24T05:39:25.716Z,10.90
2022-12-24T05:40:28.529Z,10.77
2022-12-24T05:41:31.335Z,10.85
2022-12-24T05:42:34.128Z,11.65
2022-12-24T05:43:37.475Z,10.40
2022-12-24T05:44:40.273Z,12.23
2022-12-24T05:45:43.180Z,11.98
2022-12-24T05:46:46.264Z,10.43
2022-12-24T05:47:49.252Z,10.35
2022-12-24T05:48:53.151Z,10.68
2022-12-24T05:49:56.182Z,11.18
2022-12-24T05:50:58.914Z,11.10
2022-12-24T05:52:01.712Z,10.65
2022-12-24T05:53:04.593Z,11.00
2022-12-24T05:54:07.497Z,10.73
2022-12-24T05:55:10.585Z,11.82
2022-12-24T05:56:16.030Z,12.48
2022-12-24T05:57:19.033Z,10.35
2022-12-24T05:58:22.116Z,10.98
2022-12-24T05:59:24.931Z,11.82
2022-12-24T06:00:27.826Z,12.20
2022-12-24T06:01:30.727Z,11.10
2022-12-24T06:02:33.562Z,10.85
2022-12-24T06:03:37.307Z,10.60
2022-12-24T06:04:40.431Z,12.55
2022-12-24T06:05:43.268Z,11.63
2022-12-24T06:06:46.264Z,11.00
2022-12-24T06:07:49.098Z,12.15
2022-12-24T06:08:53.301Z,12.05
2022-12-24T06:09:56.171Z,10.25
2022-12-24T06:11:01.299Z,10.90
2022-12-24T06:12:04.336Z,10.27
2022-12-24T06:13:07.150Z,10.98
2022-12-24T06:14:10.009Z,11.98
2022-12-24T06:15:15.247Z,11.18
2022-12-24T06:16:20.778Z,10.63
2022-12-24T06:17:23.664Z,11.23
2022-12-24T06:18:26.848Z,10.73
2022-12-24T06:19:29.765Z,11.38
2022-12-24T06:20:32.457Z,11.05
2022-12-24T06:21:35.341Z,11.38
2022-12-24T06:22:38.091Z,11.75
2022-12-24T06:23:42.894Z,12.02
2022-12-24T06:24:45.643Z,11.25
2022-12-24T06:25:48.877Z,11.70
2022-12-24T06:26:51.621Z,10.90
2022-12-24T06:27:54.435Z,11.05
2022-12-24T06:28:57.351Z,11.90
2022-12-24T06:30:00.205Z,12.43
2022-12-24T06:31:04.082Z,11.88
2022-12-24T06:32:06.894Z,11.90
2022-12-24T06:33:09.646Z,11.73
2022-12-24T06:34:12.413Z,12.40
2022-12-24T06:35:15.180Z,11.55
2022-12-24T06:36:21.327Z,12.18
2022-12-24T06:37:24.140Z,12.35
2022-12-24T06:38:26.903Z,11.35
2022-12-24T06:39:29.736Z,11.82
2022-12-24T06:40:32.540Z,11.48
2022-12-24T06:41:35.296Z,12.32
2022-12-24T06:42:38.089Z,12.55
2022-12-24T06:43:45.778Z,11.77
2022-12-24T06:44:48.549Z,12.32
2022-12-24T06:45:51.420Z,11.15
2022-12-24T06:46:54.279Z,12.27
2022-12-24T06:47:57.146Z,12.63
2022-12-24T06:49:00.198Z,12.40
2022-12-24T06:50:03.141Z,12.80
2022-12-24T06:51:06.187Z,11.93
2022-12-24T06:52:09.056Z,12.52
2022-12-24T06:53:12.138Z,11.98
2022-12-24T06:54:14.974Z,12.38
2022-12-24T06:55:17.887Z,12.05
2022-12-24T06:56:21.371Z,12.30
2022-12-24T06:57:24.080Z,13.82
2022-12-24T06:58:27.025Z,12.75
2022-12-24T06:59:29.842Z,12.35
2022-12-24T07:00:32.687Z,13.18
2022-12-24T07:01:35.624Z,13.00
2022-12-24T07:02:42.557Z,12.05
2022-12-24T07:03:45.536Z,15.45
2022-12-24T07:04:48.358Z,14.40
2022-12-24T07:05:51.506Z,14.40
2022-12-24T07:06:54.290Z,15.18
2022-12-24T07:07:57.503Z,15.07
2022-12-24T07:09:00.279Z,14.82
2022-12-24T07:10:03.350Z,15.75
2022-12-24T07:11:06.104Z,16.10
2022-12-24T07:12:08.869Z,15.75
2022-12-24T07:13:11.739Z,15.10
2022-12-24T07:14:14.431Z,14.20
2022-12-24T07:15:17.397Z,14.77
2022-12-24T07:16:20.389Z,14.32
2022-12-24T07:17:23.592Z,14.02
2022-12-24T07:18:26.786Z,15.27
2022-12-24T07:19:29.626Z,14.63
2022-12-24T07:20:32.317Z,13.98
2022-12-24T07:21:35.041Z,14.65
2022-12-24T07:22:37.792Z,15.77
2022-12-24T07:23:40.707Z,15.35
2022-12-24T07:24:43.455Z,15.82
2022-12-24T07:25:46.392Z,16.73
2022-12-24T07:26:49.313Z,15.32
2022-12-24T07:27:52.116Z,15.77
2022-12-24T07:28:54.857Z,15.95
2022-12-24T07:29:57.662Z,16.00
2022-12-24T07:31:00.958Z,15.73
2022-12-24T07:32:04.092Z,14.07
2022-12-24T07:33:07.113Z,16.05
2022-12-24T07:34:10.106Z,14.20
2022-12-24T07:35:13.017Z,14.05
2022-12-24T07:36:20.924Z,14.48
2022-12-24T07:37:23.726Z,14.13
2022-12-24T07:38:26.458Z,13.70
2022-12-24T07:39:29.172Z,13.95
2022-12-24T07:40:34.557Z,14.35
2022-12-24T07:41:41.781Z,14.48
2022-12-24T07:42:45.053Z,14.23
2022-12-24T07:43:47.982Z,15.55
2022-12-24T07:44:50.876Z,13.52
2022-12-24T07:45:57.840Z,15.13
2022-12-24T07:47:00.752Z,14.50
2022-12-24T07:48:03.717Z,15.00
2022-12-24T07:49:06.538Z,14.68
2022-12-24T07:50:09.727Z,16.00
2022-12-24T07:51:12.459Z,15.02
2022-12-24T07:52:15.257Z,15.35
2022-12-24T07:53:18.239Z,14.93
2022-12-24T07:54:20.936Z,16.45
2022-12-24T07:55:23.694Z,14.68
2022-12-24T07:56:26.456Z,15.52
2022-12-24T07:57:29.232Z,15.15
2022-12-24T07:58:32.040Z,16.23
2022-12-24T07:59:34.790Z,15.60
2022-12-24T08:00:37.852Z,14.98
2022-12-24T08:01:40.960Z,15.30
2022-12-24T08:02:43.888Z,15.32
2022-12-24T08:03:46.856Z,14.55
2022-12-24T08:04:49.659Z,14.90
2022-12-24T08:05:55.578Z,14.82
2022-12-24T08:06:58.344Z,15.50
2022-12-24T08:08:01.289Z,15.40
2022-12-24T08:09:04.769Z,15.50
2022-12-24T08:10:08.132Z,15.05
2022-12-24T08:11:11.053Z,14.75
2022-12-24T08:12:14.494Z,17.83
2022-12-24T08:13:17.648Z,15.32
2022-12-24T08:14:20.395Z,17.23
2022-12-24T08:15:23.130Z,15.27
2022-12-24T08:16:26.153Z,14.73
2022-12-24T08:17:32.387Z,16.50
2022-12-24T08:18:35.440Z,14.13
2022-12-24T08:19:38.309Z,15.45
2022-12-24T08:20:41.641Z,14.25
2022-12-24T08:21:44.486Z,16.88
2022-12-24T08:22:47.512Z,16.95
2022-12-24T08:23:50.271Z,15.63
2022-12-24T08:24:52.995Z,15.60
2022-12-24T08:25:55.714Z,15.52
2022-12-24T08:26:58.633Z,15.07
2022-12-24T08:28:01.720Z,15.13
2022-12-24T08:29:05.439Z,17.02
2022-12-24T08:30:09.187Z,16.20
2022-12-24T08:31:11.914Z,14.63
2022-12-24T08:32:14.676Z,16.90
2022-12-24T08:33:17.916Z,15.65
2022-12-24T08:34:20.700Z,16.38
2022-12-24T08:35:23.643Z,16.40
2022-12-24T08:36:26.404Z,16.55
2022-12-24T08:37:29.161Z,15.05
2022-12-24T08:38:31.985Z,13.60
2022-12-24T08:39:34.640Z,14.75
2022-12-24T08:40:37.482Z,14.88
2022-12-24T08:41:40.281Z,14.30
2022-12-24T08:42:43.332Z,15.88
2022-12-24T08:43:46.307Z,14.18
2022-12-24T08:44:49.233Z,16.35
2022-12-24T08:45:52.530Z,16.83
2022-12-24T08:46:55.264Z,14.95
2022-12-24T08:48:00.402Z,15.57
2022-12-24T08:49:03.187Z,14.38
2022-12-24T08:50:07.021Z,15.20
2022-12-24T08:51:11.681Z,15.82
2022-12-24T08:52:14.428Z,13.43
2022-12-24T08:53:17.234Z,15.82
2022-12-24T08:54:20.034Z,18.13
2022-12-24T08:55:25.458Z,16.73
2022-12-24T08:56:28.257Z,17.80
2022-12-24T08:57:31.187Z,14.85
2022-12-24T08:58:34.003Z,14.70
2022-12-24T08:59:36.737Z,15.20
2022-12-24T09:00:39.584Z,13.32
2022-12-24T09:01:42.757Z,14.32
2022-12-24T09:02:45.913Z,16.55
2022-12-24T09:03:49.023Z,14.07
2022-12-24T09:04:51.857Z,15.63
2022-12-24T09:05:54.687Z,15.85
2022-12-24T09:06:57.490Z,15.70
2022-12-24T09:08:00.194Z,15.98
2022-12-24T09:09:04.176Z,15.63
2022-12-24T09:10:07.951Z,16.13
2022-12-24T09:11:15.170Z,14.40
2022-12-24T09:12:18.019Z,15.43
2022-12-24T09:13:20.799Z,15.20
2022-12-24T09:14:23.522Z,14.98
2022-12-24T09:15:26.281Z,15.40
2022-12-24T09:16:29.543Z,16.20
2022-12-24T09:17:32.337Z,15.20
2022-12-24T09:18:35.070Z,15.68
2022-12-24T09:19:38.119Z,14.23
2022-12-24T09:20:46.579Z,16.52
2022-12-24T09:21:50.518Z,16.02
2022-12-24T09:22:53.236Z,15.65
2022-12-24T09:23:56.020Z,15.20
2022-12-24T09:24:58.727Z,15.82
2022-12-24T09:26:06.038Z,15.27
2022-12-24T09:27:08.726Z,14.63
2022-12-24T09:28:11.428Z,14.18
2022-12-24T09:29:14.179Z,14.93
2022-12-24T09:30:16.984Z,15.45
2022-12-24T09:31:20.517Z,15.10
2022-12-24T09:32:23.444Z,16.23
2022-12-24T09:33:27.413Z,17.30
2022-12-24T09:34:30.915Z,16.50
2022-12-24T09:35:34.268Z,16.00
2022-12-24T09:36:37.189Z,16.15
2022-12-24T09:37:39.909Z,15.80
2022-12-24T09:38:42.756Z,16.08
2022-12-24T09:39:45.674Z,15.52
2022-12-24T09:40:49.985Z,14.68
2022-12-24T09:42:11.120Z,14.65
2022-12-24T09:43:19.993Z,14.55
2022-12-24T09:44:45.845Z,15.05
2022-12-24T09:46:15.005Z,15.77
2022-12-24T09:47:28.637Z,15.40
2022-12-24T09:48:34.487Z,13.98
2022-12-24T09:49:44.835Z,15.38
2022-12-24T09:51:02.638Z,13.90
2022-12-24T09:52:08.723Z,14.65
2022-12-24T09:53:20.880Z,15.68
2022-12-24T09:54:32.915Z,15.13
2022-12-24T09:55:44.908Z,14.05
2022-12-24T09:56:48.632Z,14.35
2022-12-24T09:57:53.752Z,13.98
2022-12-24T09:59:05.030Z,15.40
2022-12-24T10:00:21.576Z,15.43
2022-12-24T10:01:24.551Z,14.75
2022-12-24T10:02:27.570Z,13.88
2022-12-24T10:03:33.767Z,16.30
2022-12-24T10:04:36.792Z,16.00
2022-12-24T10:06:02.412Z,15.45
2022-12-24T10:07:25.442Z,14.98
2022-12-24T10:08:40.469Z,15.88
2022-12-24T10:10:18.464Z,16.17
2022-12-24T10:11:35.716Z,16.35
2022-12-24T10:13:00.228Z,15.75
2022-12-24T10:14:20.820Z,16.98
2022-12-24T10:16:02.673Z,16.95
2022-12-24T10:17:26.858Z,15.55
2022-12-24T10:18:52.396Z,14.32
2022-12-24T10:20:04.557Z,15.13
2022-12-24T10:21:16.287Z,15.40
2022-12-24T10:22:32.508Z,15.40
2022-12-24T10:23:50.311Z,16.58
2022-12-24T10:25:01.533Z,14.63
2022-12-24T10:26:10.421Z,15.85
2022-12-24T10:27:15.020Z,14.60
2022-12-24T10:28:20.279Z,16.13
2022-12-24T10:29:36.370Z,17.23
2022-12-24T10:30:39.547Z,17.80
2022-12-24T10:32:17.803Z,16.00
2022-12-24T10:33:35.633Z,16.52
2022-12-24T10:34:46.747Z,19.65
2022-12-24T10:35:53.800Z,17.90
2022-12-24T10:36:57.409Z,17.38
2022-12-24T10:38:00.267Z,16.08
2022-12-24T10:39:03.574Z,19.80
2022-12-24T10:40:07.163Z,20.23
2022-12-24T10:41:10.022Z,18.15
2022-12-24T10:42:14.046Z,17.35
2022-12-24T10:43:19.229Z,16.30
2022-12-24T10:44:23.931Z,16.60
2022-12-24T10:45:40.179Z,16.95
2022-12-24T10:46:43.280Z,14.80
2022-12-24T10:47:50.114Z,15.68
2022-12-24T10:48:58.793Z,14.10
2022-12-24T10:50:26.984Z,14.13
2022-12-24T10:51:50.629Z,12.20
2022-12-24T10:52:55.915Z,14.65
2022-12-24T10:54:06.831Z,16.13
2022-12-24T10:55:21.288Z,17.10
2022-12-24T10:56:24.048Z,14.68
2022-12-24T10:57:27.267Z,14.00
2022-12-24T10:58:30.997Z,16.02
2022-12-24T10:59:39.731Z,13.70
2022-12-24T11:00:42.869Z,16.38
2022-12-24T11:01:47.974Z,16.50
2022-12-24T11:03:25.842Z,16.95
2022-12-24T11:04:30.767Z,15.75
2022-12-24T11:05:36.321Z,15.30
2022-12-24T11:06:56.528Z,13.98
2022-12-24T11:08:20.325Z,16.63
2022-12-24T11:09:26.773Z,13.75
2022-12-24T11:10:29.974Z,16.52
2022-12-24T11:11:35.334Z,15.93
2022-12-24T11:12:40.946Z,15.38
2022-12-24T11:13:56.379Z,15.00
2022-12-24T11:15:07.467Z,14.55
2022-12-24T11:16:12.855Z,15.23
2022-12-24T11:17:22.950Z,17.65
2022-12-24T11:18:25.731Z,16.42
2022-12-24T11:19:36.175Z,14.98
2022-12-24T11:20:39.080Z,14.45
2022-12-24T11:21:42.125Z,14.70
2022-12-24T11:22:49.254Z,14.50
2022-12-24T11:23:54.882Z,15.52
2022-12-24T11:25:07.037Z,13.98
2022-12-24T11:26:10.375Z,13.15
2022-12-24T11:27:24.784Z,12.95
2022-12-24T11:28:29.084Z,13.55
2022-12-24T11:29:31.842Z,14.40
2022-12-24T11:30:35.361Z,14.30
2022-12-24T11:31:38.505Z,12.85
2022-12-24T11:33:11.707Z,14.73
2022-12-24T11:34:29.323Z,12.48
2022-12-24T11:35:34.088Z,12.15
2022-12-24T11:36:36.808Z,12.43
2022-12-24T11:37:39.528Z,12.30
2022-12-24T11:38:42.295Z,12.00
2022-12-24T11:39:49.904Z,12.65
2022-12-24T11:41:19.195Z,12.00
2022-12-24T11:42:33.809Z,14.25
2022-12-24T11:43:46.242Z,11.63
2022-12-24T11:44:49.965Z,12.02
2022-12-24T11:45:57.697Z,12.07
2022-12-24T11:47:00.444Z,11.98
2022-12-24T11:48:03.303Z,11.48
2022-12-24T11:49:12.305Z,11.35
2022-12-24T11:50:32.933Z,11.32
2022-12-24T11:51:36.290Z,12.75
2022-12-24T11:52:39.318Z,12.45
2022-12-24T11:53:51.748Z,12.73
2022-12-24T11:55:11.903Z,11.48
2022-12-24T11:56:46.348Z,12.48
2022-12-24T11:58:12.472Z,11.73
2022-12-24T11:59:19.679Z,12.23
2022-12-24T12:00:22.417Z,11.05
2022-12-24T12:01:37.070Z,12.65
2022-12-24T12:02:42.933Z,11.88
2022-12-24T12:03:53.225Z,12.57
2022-12-24T12:04:59.846Z,12.57
2022-12-24T12:06:04.667Z,12.63
2022-12-24T12:07:15.848Z,10.50
2022-12-24T12:08:20.710Z,12.25
2022-12-24T12:09:32.784Z,10.48
2022-12-24T12:10:38.670Z,11.35
2022-12-24T12:11:44.358Z,11.27
2022-12-24T12:13:12.938Z,10.73
2022-12-24T12:14:59.807Z,10.60
2022-12-24T12:16:14.803Z,10.80
2022-12-24T12:17:41.069Z,11.07
2022-12-24T12:18:52.588Z,11.10
2022-12-24T12:20:11.563Z,11.05
2022-12-24T12:21:19.586Z,10.80
2022-12-24T12:22:28.464Z,10.40
2022-12-24T12:23:42.935Z,10.63
2022-12-24T12:24:51.079Z,10.52
2022-12-24T12:25:57.787Z,11.27
2022-12-24T12:27:15.185Z,10.25
2022-12-24T12:28:41.797Z,10.35
2022-12-24T12:29:49.929Z,12.07
2022-12-24T12:31:19.859Z,11.13
2022-12-24T12:33:03.287Z,11.27
2022-12-24T12:34:22.252Z,11.30
2022-12-24T12:35:51.225Z,11.50
2022-12-24T12:37:26.181Z,11.18
2022-12-24T12:38:31.869Z,12.55
2022-12-24T12:39:36.189Z,11.40
2022-12-24T12:40:57.799Z,11.80
2022-12-24T12:42:12.187Z,11.52
2022-12-24T12:44:06.466Z,11.05
2022-12-24T12:45:35.797Z,11.75
2022-12-24T12:46:57.816Z,11.75
2022-12-24T12:48:11.828Z,10.93
2022-12-24T12:49:33.043Z,12.80
2022-12-24T12:50:40.951Z,11.52
2022-12-24T12:52:05.068Z,11.98
2022-12-24T12:53:32.599Z,10.35
2022-12-24T12:54:37.910Z,10.25
2022-12-24T12:56:13.181Z,9.65
2022-12-24T12:57:21.075Z,9.55
2022-12-24T12:58:34.945Z,11.32
2022-12-24T12:59:41.593Z,11.40
2022-12-24T13:00:47.176Z,11.45
2022-12-24T13:02:22.419Z,9.70
2022-12-24T13:04:01.361Z,10.10
2022-12-24T13:05:22.062Z,9.73
2022-12-24T13:06:44.821Z,7.47
2022-12-24T13:08:08.693Z,10.00
2022-12-24T13:09:27.943Z,9.85
2022-12-24T13:11:18.059Z,11.07
2022-12-24T13:12:45.751Z,9.20
2022-12-24T13:14:15.631Z,10.00
2022-12-24T13:15:49.552Z,9.48
2022-12-24T13:17:23.080Z,8.77
2022-12-24T13:18:50.591Z,9.27
2022-12-24T13:20:26.371Z,9.18
2022-12-24T13:21:30.837Z,9.00
2022-12-24T13:22:33.643Z,8.68
2022-12-24T13:23:36.524Z,9.18
2022-12-24T13:24:39.280Z,9.25
2022-12-24T13:25:44.323Z,8.43
2022-12-24T13:27:16.059Z,10.75
2022-12-24T13:28:33.690Z,10.63
2022-12-24T13:29:36.352Z,9.65
2022-12-24T13:30:40.632Z,10.65
2022-12-24T13:31:43.412Z,10.77
2022-12-24T13:32:53.600Z,10.25
2022-12-24T13:33:58.471Z,10.65
2022-12-24T13:35:04.282Z,10.30
2022-12-24T13:36:11.371Z,10.32
2022-12-24T13:37:27.576Z,9.25
2022-12-24T13:38:43.687Z,9.90
2022-12-24T13:40:10.460Z,9.63
2022-12-24T13:41:41.146Z,9.43
2022-12-24T13:42:59.355Z,9.85
2022-12-24T13:44:13.060Z,9.95
2022-12-24T13:45:31.130Z,10.15
2022-12-24T13:46:51.655Z,11.20
2022-12-24T13:47:54.992Z,11.15
2022-12-24T13:49:11.839Z,11.07
2022-12-24T13:50:39.484Z,10.05
2022-12-24T13:51:42.303Z,9.95
2022-12-24T13:52:52.542Z,10.02
2022-12-24T13:53:59.161Z,10.35
2022-12-24T13:55:14.791Z,11.00
2022-12-24T13:56:17.620Z,10.90
2022-12-24T13:57:39.743Z,10.27
2022-12-24T13:58:55.870Z,11.52
2022-12-24T14:00:27.316Z,9.93
2022-12-24T14:01:36.661Z,9.60
2022-12-24T14:03:05.970Z,8.27
2022-12-24T14:04:09.972Z,9.10
2022-12-24T14:05:43.429Z,8.90
2022-12-24T14:06:49.648Z,8.32
2022-12-24T14:07:53.816Z,9.23
2022-12-24T14:09:05.870Z,8.88
2022-12-24T14:10:20.721Z,8.98
2022-12-24T14:11:25.996Z,8.85
2022-12-24T14:12:34.565Z,8.52
2022-12-24T14:13:40.092Z,9.10
2022-12-24T14:14:43.033Z,9.15
2022-12-24T14:15:51.632Z,8.57
2022-12-24T14:16:57.529Z,8.80
2022-12-24T14:18:00.429Z,9.00
2022-12-24T14:19:10.498Z,9.13
2022-12-24T14:20:15.513Z,8.35
2022-12-24T14:21:22.868Z,9.38
2022-12-24T14:22:34.248Z,9.13
2022-12-24T14:23:48.953Z,7.90
2022-12-24T14:25:09.498Z,7.97
2022-12-24T14:26:18.273Z,8.45
2022-12-24T14:27:48.060Z,8.43
2022-12-24T14:29:01.248Z,8.95
2022-12-24T14:30:26.728Z,8.10
2022-12-24T14:31:29.570Z,9.00
2022-12-24T14:32:51.428Z,8.00
2022-12-24T14:34:11.499Z,9.88